Time;durP1;ratioP1;P1;durP2;ratioP2;P2;SDS_P1;SDS_P2;PMS_P1;PMS_P2;Temp;Humidity;BMP_temperature;BMP_pressure;BME280_temperature;BME280_humidity;BME280_pressure;Samples;Min_cycle;Max_cycle;Signal;HPM_P1;HPM_P2
2023/01/24 00:01:25;;;;;;;;;;;;;;;;;;4996563;28;7038;-71
2023/01/24 00:04:14;;;;;;;;;;;;;;;;;;5006196;28;7384;-71
2023/01/24 00:06:39;;;;;;;;;;;;;;;;;;5015946;28;7372;-71
2023/01/24 00:12:39;;;;;;;;;;;;;;;;;;5015636;28;7076;-71
2023/01/24 00:18:07;;;;;;;;;;;;;;;;;;5015569;28;6682;-71
2023/01/24 00:23:36;;;;;;;;;;;;;;;;;;5015398;28;7010;-71
2023/01/24 00:26:02;;;;;;;;;;;;;;;;;;5014906;28;7440;-71
2023/01/24 00:28:53;;;;;;;;;;;;;;;;;;5015544;28;7405;-71
2023/01/24 00:31:18;;;;;;;;;;;;;;;;;;5015496;28;7075;-71
2023/01/24 00:33:44;;;;;;;;;;;;;;;;;;5015554;28;6965;-71
2023/01/24 00:39:12;;;;;;;;;;;;;;;;;;5015175;28;7058;-71
2023/01/24 00:41:37;;;;;;;;;;;;;;;;;;5015113;28;7075;-71
2023/01/24 00:44:03;;;;;;;;;;;;;;;;;;5016518;28;7157;-71
2023/01/24 00:46:28;;;;;;;;;;;;;;;;;;5014847;28;7034;-71
2023/01/24 00:48:54;;;;;;;;;;;;;;;;;;5015270;28;7136;-71
2023/01/24 00:51:19;;;;;;;;;;;;;;;;;;5015155;28;6928;-71
2023/01/24 00:57:03;;;;;;;;;;;;;;;;;;5014928;28;6996;-71
2023/01/24 00:59:29;;;;;;;;;;;;;;;;;;5015092;28;6964;-71
2023/01/24 01:01:54;;;;;;;;;;;;;;;;;;5015079;28;7427;-71
2023/01/24 01:04:22;;;;;;;;;;;;;;;;;;5015083;28;7210;-71
2023/01/24 01:06:48;;;;;;;;;;;;;;;;;;5014984;28;7172;-71
2023/01/24 01:09:13;;;;;;;;;;;;;;;;;;5015578;28;7114;-71
2023/01/24 01:11:41;;;;;;;;;;;;;;;;;;5014897;28;6898;-71
2023/01/24 01:14:09;;;;;;;;;;;;;;;;;;5014966;28;7248;-71
2023/01/24 01:16:37;;;;;;;;;;;;;;;;;;5014771;28;7581;-71
2023/01/24 01:19:04;;;;;;;;;;;;;;;;;;5014427;28;7175;-71
2023/01/24 01:24:32;;;;;;;;;;;;;;;;;;5014628;28;6925;-71
2023/01/24 01:30:14;;;;;;;;;;;;;;;;;;5014584;28;6694;-71
2023/01/24 01:32:40;;;;;;;;;;;;;;;;;;5014709;28;7405;-71
2023/01/24 01:38:08;;;;;;;;;;;;;;;;;;5015266;28;6941;-71
2023/01/24 01:40:57;;;;;;;;;;;;;;;;;;5018509;28;7123;-71
2023/01/24 01:43:24;;;;;;;;;;;;;;;;;;5018428;28;7160;-71
2023/01/24 01:45:51;;;;;;;;;;;;;;;;;;5017718;28;7208;-71
2023/01/24 01:48:41;;;;;;;;;;;;;;;;;;5018265;28;6932;-71
2023/01/24 01:51:25;;;;;;;;;;;;;;;;;;5018613;28;7117;-71
2023/01/24 02:00:12;;;;;;;;;;;;;;;;;;5018099;28;7019;-71
2023/01/24 02:02:41;;;;;;;;;;;;;;;;;;5018336;28;7369;-71
2023/01/24 02:05:08;;;;;;;;;;;;;;;;;;5018210;28;6961;-71
2023/01/24 02:07:44;;;;;;;;;;;;;;;;;;5018288;28;7050;-71
2023/01/24 02:10:12;;;;;;;;;;;;;;;;;;5018592;28;7167;-71
2023/01/24 02:18:44;;;;;;;;;;;;;;;;;;5017664;28;6931;-71
2023/01/24 02:21:25;;;;;;;;;;;;;;;;;;5018066;28;7144;-71
2023/01/24 02:23:58;;;;;;;;;;;;;;;;;;5017847;28;7065;-71
2023/01/24 02:26:26;;;;;;;;;;;;;;;;;;5017493;28;6936;-71
2023/01/24 02:28:57;;;;;;;;;;;;;;;;;;5017557;28;6917;-71
2023/01/24 02:31:41;;;;;;;;;;;;;;;;;;5017739;28;7120;-71
2023/01/24 02:34:07;;;;;;;;;;;;;;;;;;5000083;28;8562;-71
2023/01/24 02:36:35;;;;;;;;;;;;;;;;;;5017712;28;6927;-71
2023/01/24 02:39:08;;;;;;;;;;;;;;;;;;5017744;28;7157;-71
2023/01/24 02:44:44;;;;;;;;;;;;;;;;;;5017470;28;6910;-71
2023/01/24 02:47:09;;;;;;;;;;;;;;;;;;5017184;28;7152;-71
2023/01/24 02:58:44;;;;;;;;;;;;;;;;;;5017150;28;6920;-71
2023/01/24 03:01:10;;;;;;;;;;;;;;;;;;5017115;28;7171;-71
2023/01/24 03:03:36;;;;;;;;;;;;;;;;;;5017253;28;7227;-71
2023/01/24 03:06:01;;;;;;;;;;;;;;;;;;5017036;28;7028;-71
2023/01/24 03:08:29;;;;;;;;;;;;;;;;;;5017185;28;7527;-71
2023/01/24 03:10:55;;;;;;;;;;;;;;;;;;5016781;28;7030;-71
2023/01/24 03:36:31;;;;;;;;;;;;;;;;;;5017067;28;6926;-71
2023/01/24 03:42:00;;;;;;;;;;;;;;;;;;5016345;28;7036;-71
2023/01/24 03:44:51;;;;;;;;;;;;;;;;;;5016511;28;7304;-71
2023/01/24 03:47:16;;;;;;;;;;;;;;;;;;5016012;28;7121;-71
2023/01/24 03:53:03;;;;;;;;;;;;;;;;;;5016068;28;6986;-71
2023/01/24 04:01:34;;;;;;;;;;;;;;;;;;5015047;28;7111;-71
2023/01/24 04:04:00;;;;;;;;;;;;;;;;;;5016161;28;7225;-71
2023/01/24 04:15:32;;;;;;;;;;;;;;;;;;5016107;28;6963;-71
2023/01/24 04:18:00;;;;;;;;;;;;;;;;;;5015878;28;7114;-71
2023/01/24 04:20:27;;;;;;;;;;;;;;;;;;5015762;28;7191;-71
2023/01/24 04:23:07;;;;;;;;;;;;;;;;;;5016238;28;7262;-71
2023/01/24 04:25:32;;;;;;;;;;;;;;;;;;5014404;28;7023;-72
2023/01/24 04:28:03;;;;;;;;;;;;;;;;;;5015447;28;7133;-71
2023/01/24 04:30:28;;;;;;;;;;;;;;;;;;5015542;28;7121;-71
2023/01/24 04:35:58;;;;;;;;;;;;;;;;;;5015337;28;6901;-71
2023/01/24 04:38:25;;;;;;;;;;;;;;;;;;5015351;28;7414;-71
2023/01/24 04:43:17;;;;;;;;;;;;;;;;;;4975288;28;6933;-71
2023/01/24 04:45:50;;;;;;;;;;;;;;;;;;4976441;28;6930;-71
2023/01/24 04:48:15;;;;;;;;;;;;;;;;;;4976417;28;7285;-71
2023/01/24 04:50:50;;;;;;;;;;;;;;;;;;4978525;28;7269;-71
2023/01/24 04:53:21;;;;;;;;;;;;;;;;;;4995841;28;7570;-71
2023/01/24 04:55:47;;;;;;;;;;;;;;;;;;4987712;28;7083;-71
2023/01/24 04:58:25;;;;;;;;;;;;;;;;;;4980182;28;7470;-71
2023/01/24 05:00:50;;;;;;;;;;;;;;;;;;4994343;28;7178;-71
2023/01/24 05:03:16;;;;;;;;;;;;;;;;;;4995396;28;7137;-71
2023/01/24 05:05:41;;;;;;;;;;;;;;;;;;4990019;28;7164;-71
2023/01/24 05:08:37;;;;;;;;;;;;;;;;;;4975684;28;6989;-71
2023/01/24 05:11:12;;;;;;;;;;;;;;;;;;4975956;28;7027;-71
2023/01/24 05:13:37;;;;;;;;;;;;;;;;;;4975735;28;7469;-71
2023/01/24 05:19:06;;;;;;;;;;;;;;;;;;4995256;28;6670;-71
2023/01/24 05:21:31;;;;;;;;;;;;;;;;;;4995166;28;7448;-71
2023/01/24 05:26:54;;;;;;;;;;;;;;;;;;4995309;28;6761;-71
2023/01/24 05:29:20;;;;;;;;;;;;;;;;;;4995134;28;7129;-71
2023/01/24 05:38:10;;;;;;;;;;;;;;;;;;4994907;28;6907;-71
2023/01/24 05:40:35;;;;;;;;;;;;;;;;;;4994761;28;6928;-71
2023/01/24 05:43:01;;;;;;;;;;;;;;;;;;4994571;28;7161;-71
2023/01/24 05:45:39;;;;;;;;;;;;;;;;;;4995001;28;7257;-71
2023/01/24 05:48:05;;;;;;;;;;;;;;;;;;4995012;28;7017;-71
2023/01/24 05:50:31;;;;;;;;;;;;;;;;;;4995021;28;7003;-71
2023/01/24 05:53:03;;;;;;;;;;;;;;;;;;4994956;28;7164;-71
2023/01/24 05:55:29;;;;;;;;;;;;;;;;;;4994956;28;7125;-71
2023/01/24 05:57:55;;;;;;;;;;;;;;;;;;4988703;28;7018;-71
2023/01/24 06:03:45;;;;;;;;;;;;;;;;;;4975240;28;6922;-71
2023/01/24 06:09:13;;;;;;;;;;;;;;;;;;4975546;28;7028;-71
2023/01/24 06:11:39;;;;;;;;;;;;;;;;;;4975315;28;7295;-71
2023/01/24 06:16:55;;;;;;;;;;;;;;;;;;4975435;28;6769;-71
2023/01/24 06:19:20;;;;;;;;;;;;;;;;;;4975112;28;7147;-71
2023/01/24 06:22:03;;;;;;;;;;;;;;;;;;4975311;28;7000;-71
2023/01/24 06:24:29;;;;;;;;;;;;;;;;;;4981543;28;7384;-71
2023/01/24 06:27:28;;;;;;;;;;;;;;;;;;4998304;28;7232;-71
2023/01/24 06:29:54;;;;;;;;;;;;;;;;;;4998372;28;6813;-71
2023/01/24 06:38:21;;;;;;;;;;;;;;;;;;4959408;28;7055;-71
2023/01/24 06:43:50;;;;;;;;;;;;;;;;;;4990891;28;6905;-71
2023/01/24 06:49:18;;;;;;;;;;;;;;;;;;4997698;28;7017;-71
2023/01/24 06:52:00;;;;;;;;;;;;;;;;;;4983571;28;6893;-73
2023/01/24 06:54:26;;;;;;;;;;;;;;;;;;4977118;28;6980;-71
2023/01/24 06:57:09;;;;;;;;;;;;;;;;;;4978232;28;7167;-71
2023/01/24 06:59:34;;;;;;;;;;;;;;;;;;4978176;28;7322;-71
2023/01/24 07:02:19;;;;;;;;;;;;;;;;;;4977486;28;7081;-71
2023/01/24 07:04:44;;;;;;;;;;;;;;;;;;4978478;28;7123;-71
2023/01/24 07:10:25;;;;;;;;;;;;;;;;;;4977786;28;6938;-71
2023/01/24 07:12:51;;;;;;;;;;;;;;;;;;4962309;28;7404;-71
2023/01/24 07:15:18;;;;;;;;;;;;;;;;;;4958562;28;6903;-71
2023/01/24 07:17:43;;;;;;;;;;;;;;;;;;4958695;28;7058;-72
2023/01/24 07:20:23;;;;;;;;;;;;;;;;;;4958585;28;7210;-72
2023/01/24 07:22:49;;;;;;;;;;;;;;;;;;4958346;28;7062;-71
2023/01/24 07:25:25;;;;;;;;;;;;;;;;;;4958338;28;7101;-71
2023/01/24 07:27:51;;;;;;;;;;;;;;;;;;4970852;28;7177;-72
2023/01/24 07:30:16;;;;;;;;;;;;;;;;;;4977246;28;7122;-70
2023/01/24 07:35:47;;;;;;;;;;;;;;;;;;4977304;28;7310;-70
2023/01/24 07:38:12;;;;;;;;;;;;;;;;;;4977682;28;7198;-70
2023/01/24 07:40:53;;;;;;;;;;;;;;;;;;4977317;28;6924;-70
2023/01/24 07:43:20;;;;;;;;;;;;;;;;;;4977155;28;7123;-70
2023/01/24 07:46:05;;;;;;;;;;;;;;;;;;4977296;28;6922;-70
2023/01/24 07:48:31;;;;;;;;;;;;;;;;;;4977387;28;7271;-70
2023/01/24 07:54:02;;;;;;;;;;;;;;;;;;4976904;28;6741;-71
2023/01/24 07:56:27;;;;;;;;;;;;;;;;;;4976915;28;7905;-71
2023/01/24 08:01:56;;;;;;;;;;;;;;;;;;4976850;28;6925;-70
2023/01/24 08:04:58;;;;;;;;;;;;;;;;;;4976967;28;7136;-70
2023/01/24 08:07:24;;;;;;;;;;;;;;;;;;4976936;28;7123;-70
2023/01/24 08:15:58;;;;;;;;;;;;;;;;;;4976673;28;6958;-70
2023/01/24 08:18:24;;;;;;;;;;;;;;;;;;4976777;28;7185;-70
2023/01/24 08:23:52;;;;;;;;;;;;;;;;;;4976559;28;6749;-70
2023/01/24 08:26:17;;;;;;;;;;;;;;;;;;4976616;28;7379;-70
2023/01/24 08:28:43;;;;;;;;;;;;;;;;;;4976671;28;6925;-70
2023/01/24 08:31:09;;;;;;;;;;;;;;;;;;4976963;28;7049;-70
2023/01/24 08:34:08;;;;;;;;;;;;;;;;;;4976258;28;7850;-70
2023/01/24 08:36:35;;;;;;;;;;;;;;;;;;4976159;28;6944;-70
2023/01/24 08:39:04;;;;;;;;;;;;;;;;;;4976470;28;6926;-70
2023/01/24 08:41:30;;;;;;;;;;;;;;;;;;4976056;28;7899;-70
2023/01/24 08:43:56;;;;;;;;;;;;;;;;;;4974473;28;7410;-70
2023/01/24 08:46:33;;;;;;;;;;;;;;;;;;4977375;28;7123;-70
2023/01/24 08:48:59;;;;;;;;;;;;;;;;;;4976160;28;7071;-70
2023/01/24 08:51:24;;;;;;;;;;;;;;;;;;4977210;28;7173;-70
2023/01/24 08:53:50;;;;;;;;;;;;;;;;;;4976245;28;7583;-70
2023/01/24 08:56:15;;;;;;;;;;;;;;;;;;4976260;28;7010;-70
2023/01/24 08:58:41;;;;;;;;;;;;;;;;;;4976236;28;6917;-70
2023/01/24 09:01:15;;;;;;;;;;;;;;;;;;4976169;28;7057;-70
2023/01/24 09:03:40;;;;;;;;;;;;;;;;;;4976093;28;7175;-70
2023/01/24 09:06:10;;;;;;;;;;;;;;;;;;4976574;28;7121;-70
2023/01/24 09:08:35;;;;;;;;;;;;;;;;;;4976129;28;7033;-70
2023/01/24 09:11:01;;;;;;;;;;;;;;;;;;4975945;28;7104;-70
2023/01/24 09:13:44;;;;;;;;;;;;;;;;;;4975997;28;7136;-70
2023/01/24 09:16:09;;;;;;;;;;;;;;;;;;4975848;28;7363;-70
2023/01/24 09:18:35;;;;;;;;;;;;;;;;;;4975926;28;6974;-70
2023/01/24 09:21:02;;;;;;;;;;;;;;;;;;4975835;28;7166;-70
2023/01/24 09:23:43;;;;;;;;;;;;;;;;;;4975698;28;7581;-70
2023/01/24 09:26:14;;;;;;;;;;;;;;;;;;4975819;28;7069;-70
2023/01/24 09:28:40;;;;;;;;;;;;;;;;;;4976965;28;7138;-70
2023/01/24 09:31:09;;;;;;;;;;;;;;;;;;4975666;28;7161;-70
2023/01/24 09:33:58;;;;;;;;;;;;;;;;;;4975737;28;6926;-70
2023/01/24 09:36:23;;;;;;;;;;;;;;;;;;4975488;28;6896;-70
2023/01/24 09:38:58;;;;;;;;;;;;;;;;;;4976601;28;7393;-70
2023/01/24 09:41:26;;;;;;;;;;;;;;;;;;4975630;28;6886;-70
2023/01/24 09:43:54;;;;;;;;;;;;;;;;;;4961414;28;8418;-70
2023/01/24 09:49:42;;;;;;;;;;;;;;;;;;4975183;28;6678;-70
2023/01/24 09:52:12;;;;;;;;;;;;;;;;;;4975352;28;7007;-70
2023/01/24 09:54:55;;;;;;;;;;;;;;;;;;4975688;28;7371;-70
2023/01/24 09:57:27;;;;;;;;;;;;;;;;;;4975510;28;6930;-70
2023/01/24 10:00:02;;;;;;;;;;;;;;;;;;4977413;28;7120;-70
2023/01/24 10:02:29;;;;;;;;;;;;;;;;;;4979525;28;7312;-70
2023/01/24 10:04:54;;;;;;;;;;;;;;;;;;4979752;28;6980;-70
2023/01/24 10:07:46;;;;;;;;;;;;;;;;;;4981236;28;7005;-70
2023/01/24 10:10:30;;;;;;;;;;;;;;;;;;4998199;28;7293;-70
2023/01/24 10:18:38;;;;;;;;;;;;;;;;;;4998626;28;6784;-70
2023/01/24 10:24:26;;;;;;;;;;;;;;;;;;4998306;28;6724;-70
2023/01/24 10:26:52;;;;;;;;;;;;;;;;;;4997862;28;7190;-70
2023/01/24 10:32:29;;;;;;;;;;;;;;;;;;4998074;28;6673;-70
2023/01/24 10:35:02;;;;;;;;;;;;;;;;;;4998241;28;7365;-70
2023/01/24 10:40:31;;;;;;;;;;;;;;;;;;4997959;28;6673;-70
2023/01/24 10:43:08;;;;;;;;;;;;;;;;;;4998103;28;7524;-70
2023/01/24 10:45:34;;;;;;;;;;;;;;;;;;4978231;28;7196;-70
2023/01/24 10:48:06;;;;;;;;;;;;;;;;;;4978294;28;6937;-70
2023/01/24 10:50:40;;;;;;;;;;;;;;;;;;4978384;28;6958;-70
2023/01/24 10:53:37;;;;;;;;;;;;;;;;;;4978463;28;7131;-70
2023/01/24 10:56:04;;;;;;;;;;;;;;;;;;4978408;28;8918;-70
2023/01/24 10:58:37;;;;;;;;;;;;;;;;;;4978986;28;7382;-70
2023/01/24 11:01:09;;;;;;;;;;;;;;;;;;4978138;28;6831;-70
2023/01/24 11:04:11;;;;;;;;;;;;;;;;;;4978330;28;7024;-70
2023/01/24 11:06:38;;;;;;;;;;;;;;;;;;4978106;28;7504;-72
2023/01/24 11:09:40;;;;;;;;;;;;;;;;;;4978272;28;7132;-72
2023/01/24 11:12:13;;;;;;;;;;;;;;;;;;4977581;28;7073;-71
2023/01/24 11:17:41;;;;;;;;;;;;;;;;;;4977975;28;6681;-71
2023/01/24 11:23:21;;;;;;;;;;;;;;;;;;4977762;28;6678;-71
2023/01/24 11:25:52;;;;;;;;;;;;;;;;;;4977806;28;7203;-71
2023/01/24 11:28:33;;;;;;;;;;;;;;;;;;4977809;28;7014;-71
2023/01/24 11:31:05;;;;;;;;;;;;;;;;;;4978284;28;6956;-70
2023/01/24 11:33:58;;;;;;;;;;;;;;;;;;4978543;28;7127;-70
2023/01/24 11:36:41;;;;;;;;;;;;;;;;;;4977706;28;6944;-70
2023/01/24 11:39:32;;;;;;;;;;;;;;;;;;4977600;28;7200;-70
2023/01/24 11:42:16;;;;;;;;;;;;;;;;;;4977486;28;7160;-70
2023/01/24 11:51:24;;;;;;;;;;;;;;;;;;4917999;29;6773;-70
2023/01/24 11:53:50;;;;;;;;;;;;;;;;;;4917720;29;6911;-70
2023/01/24 11:56:32;;;;;;;;;;;;;;;;;;4918039;29;7103;-70
2023/01/24 12:02:22;;;;;;;;;;;;;;;;;;4899153;29;6770;-70
2023/01/24 12:05:06;;;;;;;;;;;;;;;;;;4899346;29;7100;-70
2023/01/24 12:08:03;;;;;;;;;;;;;;;;;;4898768;29;6952;-70
2023/01/24 12:13:48;;;;;;;;;;;;;;;;;;4898837;29;6958;-70
2023/01/24 12:22:35;;;;;;;;;;;;;;;;;;4897739;29;6998;-70
2023/01/24 12:31:04;;;;;;;;;;;;;;;;;;4955175;28;6996;-70
2023/01/24 12:33:48;;;;;;;;;;;;;;;;;;4955378;28;7185;-70
2023/01/24 12:36:29;;;;;;;;;;;;;;;;;;4955137;28;7292;-70
2023/01/24 12:38:59;;;;;;;;;;;;;;;;;;4977136;28;6934;-70
2023/01/24 12:41:38;;;;;;;;;;;;;;;;;;4995801;28;7638;-70
2023/01/24 12:50:37;;;;;;;;;;;;;;;;;;4977087;28;7084;-70
2023/01/24 12:53:24;;;;;;;;;;;;;;;;;;4974131;28;7627;-70
2023/01/24 12:58:47;;;;;;;;;;;;;;;;;;4975660;28;6942;-70
2023/01/24 13:22:39;;;;;;;;;;;;;;;;;;4956249;28;6930;-70
2023/01/24 13:25:17;;;;;;;;;;;;;;;;;;4956523;28;7365;-70
2023/01/24 13:28:00;;;;;;;;;;;;;;;;;;4956730;28;7187;-70
2023/01/24 13:30:26;;;;;;;;;;;;;;;;;;4956464;29;7151;-70
2023/01/24 13:36:05;;;;;;;;;;;;;;;;;;4962583;28;6706;-70
2023/01/24 13:44:29;;;;;;;;;;;;;;;;;;4962777;28;7062;-70
2023/01/24 13:47:03;;;;;;;;;;;;;;;;;;4962739;28;7201;-70
2023/01/24 13:49:46;;;;;;;;;;;;;;;;;;4962814;28;7080;-70
2023/01/24 13:52:30;;;;;;;;;;;;;;;;;;4962229;28;7015;-70
2023/01/24 13:58:07;;;;;;;;;;;;;;;;;;4962414;28;7086;-70
2023/01/24 14:00:45;;;;;;;;;;;;;;;;;;4962450;28;7175;-70
2023/01/24 14:03:39;;;;;;;;;;;;;;;;;;4962524;28;7338;-70
2023/01/24 14:06:11;;;;;;;;;;;;;;;;;;4962131;28;7241;-70
2023/01/24 14:08:57;;;;;;;;;;;;;;;;;;4962586;28;7224;-70
2023/01/24 14:11:31;;;;;;;;;;;;;;;;;;4963162;28;6952;-70
2023/01/24 14:14:02;;;;;;;;;;;;;;;;;;4963332;28;7566;-70
2023/01/24 14:20:04;;;;;;;;;;;;;;;;;;4962326;28;6825;-70
2023/01/24 14:22:38;;;;;;;;;;;;;;;;;;4962399;28;6953;-70
2023/01/24 14:28:39;;;;;;;;;;;;;;;;;;4961873;28;7087;-70
2023/01/24 14:31:17;;;;;;;;;;;;;;;;;;4961936;28;7091;-70
2023/01/24 14:33:45;;;;;;;;;;;;;;;;;;4945129;28;8471;-70
2023/01/24 14:39:16;;;;;;;;;;;;;;;;;;4962687;28;6969;-70
2023/01/24 14:41:42;;;;;;;;;;;;;;;;;;4945962;28;8408;-70
2023/01/24 14:47:43;;;;;;;;;;;;;;;;;;4955764;28;6714;-70
2023/01/24 14:50:22;;;;;;;;;;;;;;;;;;4972734;28;7450;-70
2023/01/24 14:52:51;;;;;;;;;;;;;;;;;;4973484;28;7114;-71
2023/01/24 14:55:17;;;;;;;;;;;;;;;;;;4974415;28;7002;-69
2023/01/24 15:00:48;;;;;;;;;;;;;;;;;;4976569;28;6997;-70
2023/01/24 15:03:18;;;;;;;;;;;;;;;;;;4976132;28;7157;-70
2023/01/24 15:08:35;;;;;;;;;;;;;;;;;;4976402;28;6993;-71
2023/01/24 15:11:20;;;;;;;;;;;;;;;;;;4976133;28;7377;-70
2023/01/24 15:13:49;;;;;;;;;;;;;;;;;;4976170;28;6967;-70
2023/01/24 15:25:32;;;;;;;;;;;;;;;;;;4975799;28;6674;-70
2023/01/24 15:30:56;;;;;;;;;;;;;;;;;;4975586;28;6943;-70
2023/01/24 15:33:22;;;;;;;;;;;;;;;;;;4975591;28;7425;-70
2023/01/24 15:36:10;;;;;;;;;;;;;;;;;;4975641;28;6925;-70
2023/01/24 15:44:22;;;;;;;;;;;;;;;;;;4968389;28;7033;-70
2023/01/24 15:52:52;;;;;;;;;;;;;;;;;;4956576;28;6943;-70
2023/01/24 15:55:17;;;;;;;;;;;;;;;;;;4956096;28;7124;-70
2023/01/24 15:57:43;;;;;;;;;;;;;;;;;;4954939;28;7110;-70
2023/01/24 16:00:08;;;;;;;;;;;;;;;;;;4945709;28;7140;-70
2023/01/24 16:05:42;;;;;;;;;;;;;;;;;;4938450;29;6697;-70
2023/01/24 16:08:08;;;;;;;;;;;;;;;;;;4938657;29;7069;-70
2023/01/24 16:10:44;;;;;;;;;;;;;;;;;;4938574;29;6954;-70
2023/01/24 16:13:29;;;;;;;;;;;;;;;;;;4938545;29;6946;-70
2023/01/24 16:22:28;;;;;;;;;;;;;;;;;;4938273;29;6982;-69
2023/01/24 16:24:54;;;;;;;;;;;;;;;;;;4938211;29;7450;-69
2023/01/24 16:30:24;;;;;;;;;;;;;;;;;;4937892;29;6679;-69
2023/01/24 16:32:51;;;;;;;;;;;;;;;;;;4937865;29;8010;-69
2023/01/24 16:35:29;;;;;;;;;;;;;;;;;;4938074;29;7074;-69
2023/01/24 16:37:54;;;;;;;;;;;;;;;;;;4938045;29;7114;-69
2023/01/24 16:40:20;;;;;;;;;;;;;;;;;;4937833;29;6974;-70
2023/01/24 16:42:47;;;;;;;;;;;;;;;;;;4937594;29;7165;-70
2023/01/24 16:48:37;;;;;;;;;;;;;;;;;;4956934;28;7029;-69
2023/01/24 16:51:08;;;;;;;;;;;;;;;;;;4956865;28;7323;-70
2023/01/24 16:53:35;;;;;;;;;;;;;;;;;;4956715;28;7301;-70
2023/01/24 16:56:01;;;;;;;;;;;;;;;;;;4956984;28;7185;-69
2023/01/24 16:58:29;;;;;;;;;;;;;;;;;;4956902;28;7224;-69
2023/01/24 17:00:55;;;;;;;;;;;;;;;;;;4956898;28;7189;-70
2023/01/24 17:06:21;;;;;;;;;;;;;;;;;;4956882;28;6781;-70
2023/01/24 17:09:05;;;;;;;;;;;;;;;;;;4956391;28;7132;-70
2023/01/24 17:11:31;;;;;;;;;;;;;;;;;;4956717;28;7442;-70
2023/01/24 17:13:58;;;;;;;;;;;;;;;;;;4956433;28;7233;-70
2023/01/24 17:16:34;;;;;;;;;;;;;;;;;;4956716;28;7309;-70
2023/01/24 17:19:01;;;;;;;;;;;;;;;;;;4956558;28;7122;-70
2023/01/24 17:21:47;;;;;;;;;;;;;;;;;;4956623;28;7343;-70
2023/01/24 17:24:12;;;;;;;;;;;;;;;;;;4956533;28;7350;-70
2023/01/24 17:26:52;;;;;;;;;;;;;;;;;;4956488;28;6925;-70
2023/01/24 17:29:18;;;;;;;;;;;;;;;;;;4956828;28;7169;-70
2023/01/24 17:35:23;;;;;;;;;;;;;;;;;;4956405;29;7008;-70
2023/01/24 17:37:48;;;;;;;;;;;;;;;;;;4957029;29;6926;-70
2023/01/24 17:40:16;;;;;;;;;;;;;;;;;;4956457;29;7151;-70
2023/01/24 17:42:43;;;;;;;;;;;;;;;;;;4956064;29;8097;-70
2023/01/24 17:45:09;;;;;;;;;;;;;;;;;;4955626;29;7055;-70
2023/01/24 17:47:34;;;;;;;;;;;;;;;;;;4956123;29;7258;-70
2023/01/24 17:50:00;;;;;;;;;;;;;;;;;;4956142;29;7156;-70
2023/01/24 17:52:25;;;;;;;;;;;;;;;;;;4956234;29;7022;-70
2023/01/24 17:54:51;;;;;;;;;;;;;;;;;;4956198;29;7246;-70
2023/01/24 17:57:22;;;;;;;;;;;;;;;;;;4955779;29;7084;-70
2023/01/24 17:59:47;;;;;;;;;;;;;;;;;;4956215;29;7179;-70
2023/01/24 18:02:13;;;;;;;;;;;;;;;;;;4956206;29;7156;-70
2023/01/24 18:04:38;;;;;;;;;;;;;;;;;;4956017;29;7145;-70
2023/01/24 18:10:08;;;;;;;;;;;;;;;;;;4955919;29;6686;-70
2023/01/24 18:13:10;;;;;;;;;;;;;;;;;;4955773;29;7072;-70
2023/01/24 18:15:36;;;;;;;;;;;;;;;;;;4956195;29;7034;-69
2023/01/24 18:18:02;;;;;;;;;;;;;;;;;;4956179;29;7129;-70
2023/01/24 18:20:41;;;;;;;;;;;;;;;;;;4956872;28;7049;-70
2023/01/24 18:23:07;;;;;;;;;;;;;;;;;;4959663;28;7077;-70
2023/01/24 18:25:34;;;;;;;;;;;;;;;;;;4959763;28;7156;-70
2023/01/24 18:31:09;;;;;;;;;;;;;;;;;;4959447;28;6923;-69
2023/01/24 18:33:36;;;;;;;;;;;;;;;;;;4958984;28;7183;-69
2023/01/24 18:36:14;;;;;;;;;;;;;;;;;;4959217;28;8097;-69
2023/01/24 18:39:04;;;;;;;;;;;;;;;;;;4959429;28;7199;-69
2023/01/24 18:41:29;;;;;;;;;;;;;;;;;;4958977;28;6893;-69
2023/01/24 18:44:03;;;;;;;;;;;;;;;;;;4959363;28;7026;-69
2023/01/24 18:46:55;;;;;;;;;;;;;;;;;;4958908;28;7175;-69
2023/01/24 18:49:21;;;;;;;;;;;;;;;;;;4959255;28;7078;-69
2023/01/24 18:51:49;;;;;;;;;;;;;;;;;;4958795;28;6983;-69
2023/01/24 19:03:43;;;;;;;;;;;;;;;;;;4958753;28;6686;-70
2023/01/24 19:06:09;;;;;;;;;;;;;;;;;;4958954;28;7176;-70
2023/01/24 19:08:35;;;;;;;;;;;;;;;;;;4959646;28;7184;-70
2023/01/24 19:11:07;;;;;;;;;;;;;;;;;;4958861;28;7195;-70
2023/01/24 19:19:39;;;;;;;;;;;;;;;;;;4958557;28;6925;-69
2023/01/24 19:25:08;;;;;;;;;;;;;;;;;;4958474;28;7001;-69
2023/01/24 19:31:00;;;;;;;;;;;;;;;;;;4958342;28;6689;-69
2023/01/24 19:33:26;;;;;;;;;;;;;;;;;;4957168;28;8487;-70
2023/01/24 19:38:56;;;;;;;;;;;;;;;;;;4958132;28;6693;-69
2023/01/24 19:41:22;;;;;;;;;;;;;;;;;;4958267;28;7451;-69
2023/01/24 19:43:48;;;;;;;;;;;;;;;;;;4958288;28;7266;-69
2023/01/24 19:46:13;;;;;;;;;;;;;;;;;;4957599;28;6916;-69
2023/01/24 19:51:45;;;;;;;;;;;;;;;;;;4957879;28;6682;-69
2023/01/24 20:00:20;;;;;;;;;;;;;;;;;;4957406;28;6686;-69
2023/01/24 20:02:45;;;;;;;;;;;;;;;;;;4957435;28;7520;-70
2023/01/24 20:05:17;;;;;;;;;;;;;;;;;;4957636;28;7154;-69
2023/01/24 20:07:43;;;;;;;;;;;;;;;;;;4957497;28;7220;-69
2023/01/24 20:10:26;;;;;;;;;;;;;;;;;;4957458;28;7332;-69
2023/01/24 20:12:53;;;;;;;;;;;;;;;;;;4957711;28;7105;-69
2023/01/24 20:15:29;;;;;;;;;;;;;;;;;;4940139;28;8535;-69
2023/01/24 20:17:56;;;;;;;;;;;;;;;;;;4957470;28;7187;-69
2023/01/24 20:20:58;;;;;;;;;;;;;;;;;;4957469;28;7568;-70
2023/01/24 20:23:24;;;;;;;;;;;;;;;;;;4957379;28;6962;-71
2023/01/24 20:25:52;;;;;;;;;;;;;;;;;;4972386;28;7335;-70
2023/01/24 20:28:18;;;;;;;;;;;;;;;;;;4986865;28;7183;-70
2023/01/24 20:34:09;;;;;;;;;;;;;;;;;;4981927;28;6745;-69
2023/01/24 20:36:36;;;;;;;;;;;;;;;;;;4980532;28;7240;-69
2023/01/24 20:39:03;;;;;;;;;;;;;;;;;;4995808;28;7257;-69
2023/01/24 20:41:34;;;;;;;;;;;;;;;;;;4992881;28;7239;-70
2023/01/24 20:44:00;;;;;;;;;;;;;;;;;;4975861;28;8359;-70
2023/01/24 20:46:42;;;;;;;;;;;;;;;;;;4992648;28;6972;-70
2023/01/24 20:49:09;;;;;;;;;;;;;;;;;;4976314;28;7096;-70
2023/01/24 20:51:35;;;;;;;;;;;;;;;;;;4975847;28;7051;-70
2023/01/24 20:54:02;;;;;;;;;;;;;;;;;;4976296;28;7036;-69
2023/01/24 20:56:28;;;;;;;;;;;;;;;;;;4976262;28;7194;-69
2023/01/24 20:59:03;;;;;;;;;;;;;;;;;;4976301;28;7451;-69
2023/01/24 21:01:30;;;;;;;;;;;;;;;;;;4976105;28;7268;-69
2023/01/24 21:04:00;;;;;;;;;;;;;;;;;;4976291;28;7076;-69
2023/01/24 21:06:45;;;;;;;;;;;;;;;;;;4979534;28;7013;-69
2023/01/24 21:09:11;;;;;;;;;;;;;;;;;;4995523;28;7169;-69
2023/01/24 21:11:36;;;;;;;;;;;;;;;;;;4989748;28;6976;-69
2023/01/24 21:14:05;;;;;;;;;;;;;;;;;;4995155;28;6950;-70
2023/01/24 21:16:32;;;;;;;;;;;;;;;;;;4995452;28;7280;-70
2023/01/24 21:19:04;;;;;;;;;;;;;;;;;;4995561;28;7285;-70
2023/01/24 21:21:31;;;;;;;;;;;;;;;;;;4995268;28;7021;-70
2023/01/24 21:23:58;;;;;;;;;;;;;;;;;;4995468;28;7121;-70
2023/01/24 21:26:24;;;;;;;;;;;;;;;;;;4995194;28;7217;-70
2023/01/24 21:28:58;;;;;;;;;;;;;;;;;;4986522;28;7833;-70
2023/01/24 21:31:23;;;;;;;;;;;;;;;;;;4990551;28;7246;-70
2023/01/24 21:33:55;;;;;;;;;;;;;;;;;;4975659;28;7390;-70
2023/01/24 21:36:44;;;;;;;;;;;;;;;;;;4976391;28;6973;-71
2023/01/24 21:39:09;;;;;;;;;;;;;;;;;;4975685;28;6969;-70
2023/01/24 21:41:54;;;;;;;;;;;;;;;;;;4975973;28;6920;-70
2023/01/24 21:44:20;;;;;;;;;;;;;;;;;;4975582;28;7000;-70
2023/01/24 21:46:46;;;;;;;;;;;;;;;;;;4974263;28;7039;-70
2023/01/24 21:49:42;;;;;;;;;;;;;;;;;;4975284;28;7286;-70
2023/01/24 21:52:11;;;;;;;;;;;;;;;;;;4975507;28;7026;-70
2023/01/24 21:54:37;;;;;;;;;;;;;;;;;;4976711;28;7032;-70
2023/01/24 21:59:49;;;;;;;;;;;;;;;;;;4979795;28;6797;-70
2023/01/24 22:02:30;;;;;;;;;;;;;;;;;;4979657;28;6951;-70
2023/01/24 22:04:55;;;;;;;;;;;;;;;;;;4979414;28;7160;-70
2023/01/24 22:07:22;;;;;;;;;;;;;;;;;;4979347;28;7118;-70
2023/01/24 22:10:18;;;;;;;;;;;;;;;;;;4979207;28;7222;-70
2023/01/24 22:12:43;;;;;;;;;;;;;;;;;;4979183;28;7048;-70
2023/01/24 22:15:13;;;;;;;;;;;;;;;;;;4979026;28;8193;-70
2023/01/24 22:20:42;;;;;;;;;;;;;;;;;;4978925;28;7042;-70
2023/01/24 22:26:10;;;;;;;;;;;;;;;;;;4980073;28;7029;-70
2023/01/24 22:28:36;;;;;;;;;;;;;;;;;;4978904;28;6918;-70
2023/01/24 22:31:20;;;;;;;;;;;;;;;;;;4978971;28;6913;-70
2023/01/24 22:33:46;;;;;;;;;;;;;;;;;;4978480;28;7405;-70
2023/01/24 22:36:11;;;;;;;;;;;;;;;;;;4978841;28;7271;-70
2023/01/24 22:38:38;;;;;;;;;;;;;;;;;;4978912;28;7041;-70
2023/01/24 22:41:04;;;;;;;;;;;;;;;;;;4978516;28;7563;-70
2023/01/24 22:43:29;;;;;;;;;;;;;;;;;;4978344;28;8009;-70
2023/01/24 22:46:15;;;;;;;;;;;;;;;;;;4978391;28;7386;-70
2023/01/24 22:48:40;;;;;;;;;;;;;;;;;;4978674;28;7131;-70
2023/01/24 22:51:06;;;;;;;;;;;;;;;;;;4979098;28;7254;-70
2023/01/24 22:56:35;;;;;;;;;;;;;;;;;;4978329;28;6689;-70
2023/01/24 22:59:00;;;;;;;;;;;;;;;;;;4978533;28;7568;-70
2023/01/24 23:05:00;;;;;;;;;;;;;;;;;;4978243;28;6702;-70
2023/01/24 23:07:26;;;;;;;;;;;;;;;;;;4977830;28;7194;-70
2023/01/24 23:10:03;;;;;;;;;;;;;;;;;;4978251;28;7552;-70
2023/01/24 23:21:32;;;;;;;;;;;;;;;;;;4978485;28;6806;-70
2023/01/24 23:27:00;;;;;;;;;;;;;;;;;;4978247;28;6845;-70
2023/01/24 23:29:48;;;;;;;;;;;;;;;;;;4978013;28;7308;-70
2023/01/24 23:32:35;;;;;;;;;;;;;;;;;;4977856;28;6984;-70
2023/01/24 23:35:03;;;;;;;;;;;;;;;;;;4977761;28;7179;-70
2023/01/24 23:37:33;;;;;;;;;;;;;;;;;;4977484;28;8387;-70
2023/01/24 23:39:58;;;;;;;;;;;;;;;;;;4977749;28;7211;-70
2023/01/24 23:42:26;;;;;;;;;;;;;;;;;;4977639;28;7130;-70
2023/01/24 23:44:53;;;;;;;;;;;;;;;;;;4977608;28;7047;-70
2023/01/24 23:47:18;;;;;;;;;;;;;;;;;;4977129;28;7283;-70
2023/01/24 23:49:45;;;;;;;;;;;;;;;;;;4977511;28;6990;-70
2023/01/24 23:52:11;;;;;;;;;;;;;;;;;;4977320;28;7138;-70
2023/01/24 23:54:37;;;;;;;;;;;;;;;;;;4977387;28;7261;-70